Alcoa, Tennessee
Current Conditions -  °F | °C
As of 8:53 AM on Tuesday 21 Oct 2014 (Local Time) from KTYS Reporting Station
Few Clouds Few Clouds  
Wind Chill: 53°   Ceiling: Unl
Heat Index: 53°   Visibility: 10mi
Dew Point: 49°   Wind: 6mph
Humidity: 86%   Direction: 240°WSW
Pressure: 30.01"   Gusts: NA
Location:  35.77°N, 83.98°W
Report Text: KTYS 211253Z 24005KT 10SM FEW075 12/09 A3001 RMK AO2 SLP160 T01170094
Loading
Personal Weather Stations






























Interactive Weather Map
Tropical Storm Tracking
New forecast layout! Learn more

10-Day Weather Forecast

Advertisements
Track Severe Weather on mobile